Time;durP1;ratioP1;P1;durP2;ratioP2;P2;SDS_P1;SDS_P2;PMS_P1;PMS_P2;Temp;Humidity;BMP_temperature;BMP_pressure;BME280_temperature;BME280_humidity;BME280_pressure;Samples;Min_cycle;Max_cycle;Signal;HPM_P1;HPM_P2
2021/05/03 00:00:12;;;;;;;4.22;2.60;;;;;;;23.42;51.23;99948.07;1646148;85;21259;-60
2021/05/03 00:02:40;;;;;;;4.40;2.93;;;;;;;23.42;51.24;99952.81;1657100;85;21555;-60
2021/05/03 00:05:10;;;;;;;6.28;3.10;;;;;;;23.42;51.24;99960.56;1646039;85;21180;-59
2021/05/03 00:07:37;;;;;;;4.13;2.90;;;;;;;23.42;51.24;99951.42;1644650;85;21232;-60
2021/05/03 00:10:04;;;;;;;3.42;2.40;;;;;;;23.41;51.24;99956.16;1658952;85;21165;-60
2021/05/03 00:12:31;;;;;;;4.40;2.70;;;;;;;23.40;51.25;99945.41;1646398;85;21211;-59
2021/05/03 00:14:57;;;;;;;3.47;2.70;;;;;;;23.40;51.26;99943.44;1647883;85;21616;-60
2021/05/03 00:17:24;;;;;;;5.17;2.50;;;;;;;23.39;51.26;99945.98;1671545;84;21161;-60
2021/05/03 00:19:50;;;;;;;4.40;2.85;;;;;;;23.39;51.25;99951.53;1671141;84;21140;-60
2021/05/03 00:22:16;;;;;;;6.40;3.55;;;;;;;23.39;51.26;99964.61;1671045;84;21085;-60
2021/05/03 00:24:43;;;;;;;4.25;2.83;;;;;;;23.39;51.26;99964.61;1688465;83;21571;-59
2021/05/03 00:27:09;;;;;;;4.80;2.70;;;;;;;23.38;51.27;99959.63;1671822;84;21224;-60
2021/05/03 00:29:35;;;;;;;4.92;3.05;;;;;;;23.38;51.23;99965.19;1671031;84;21207;-60
2021/05/03 00:32:02;;;;;;;5.95;2.90;;;;;;;23.38;51.25;99962.41;1686255;83;21190;-60
2021/05/03 00:34:28;;;;;;;3.75;2.60;;;;;;;23.38;51.25;99956.08;1671205;84;21652;-60
2021/05/03 00:36:55;;;;;;;6.60;3.47;;;;;;;23.37;51.25;99959.43;1671218;84;21216;-60
2021/05/03 00:39:21;;;;;;;4.75;2.40;;;;;;;23.37;51.27;99957.23;1670888;84;21611;-60
2021/05/03 00:41:47;;;;;;;4.33;2.30;;;;;;;23.36;51.27;99951.45;1669225;84;21994;-60
2021/05/03 00:44:14;;;;;;;4.33;2.90;;;;;;;23.37;51.27;99953.06;1672046;84;21156;-60
2021/05/03 00:46:40;;;;;;;3.25;2.55;;;;;;;23.36;51.26;99948.09;1671860;84;21168;-60
2021/05/03 00:49:07;;;;;;;4.35;2.50;;;;;;;23.35;51.27;99939.53;1670810;84;21097;-60
2021/05/03 00:51:34;;;;;;;5.55;2.98;;;;;;;23.36;51.28;99940.34;1704347;82;21308;-60
2021/05/03 00:54:00;;;;;;;3.92;2.40;;;;;;;23.35;51.28;99939.53;1689502;84;21158;-59
2021/05/03 00:56:26;;;;;;;4.05;2.67;;;;;;;23.35;51.28;99929.02;1694622;84;21164;-59
2021/05/03 00:58:53;;;;;;;3.15;2.60;;;;;;;23.33;51.29;99936.33;1715957;82;21172;-60
2021/05/03 01:01:19;;;;;;;6.97;2.87;;;;;;;23.34;51.29;99935.75;1716812;82;21072;-59
2021/05/03 01:03:46;;;;;;;6.50;2.62;;;;;;;23.34;51.29;99930.20;1691363;84;21225;-60
2021/05/03 01:06:13;;;;;;;3.75;2.40;;;;;;;23.33;51.29;99925.80;1714427;82;21554;-59
2021/05/03 01:08:39;;;;;;;3.45;2.83;;;;;;;23.32;51.31;99929.16;1693870;84;21141;-59
2021/05/03 01:11:06;;;;;;;5.17;3.00;;;;;;;23.33;51.31;99918.86;1691579;84;21154;-60
2021/05/03 01:13:32;;;;;;;5.55;2.58;;;;;;;23.32;51.31;99917.24;1695467;84;21173;-59
2021/05/03 01:15:59;;;;;;;4.20;2.50;;;;;;;23.32;51.31;99918.05;1686455;84;21573;-60
2021/05/03 01:18:26;;;;;;;4.47;2.70;;;;;;;23.31;51.34;99917.82;1723460;82;21900;-60
2021/05/03 01:20:55;;;;;;;4.17;2.58;;;;;;;23.31;51.34;99917.01;1717420;82;21619;-61
2021/05/03 01:23:21;;;;;;;3.60;2.35;;;;;;;23.31;51.34;99915.63;1695163;84;21185;-60
2021/05/03 01:25:48;;;;;;;6.08;2.92;;;;;;;23.31;51.34;99914.23;1690517;84;21182;-59
2021/05/03 01:28:14;;;;;;;4.05;2.60;;;;;;;23.30;51.35;99914.03;1716908;82;22091;-60
2021/05/03 01:30:43;;;;;;;4.60;2.75;;;;;;;23.30;51.39;99909.87;1715209;82;21200;-60
2021/05/03 01:33:11;;;;;;;5.70;2.52;;;;;;;23.28;51.39;99904.66;1711059;82;21116;-60
2021/05/03 01:35:38;;;;;;;5.85;2.40;;;;;;;23.29;51.39;99902.70;1719025;82;21499;-60
2021/05/03 01:38:06;;;;;;;4.97;2.50;;;;;;;23.28;51.41;99907.44;1693075;84;21524;-60
2021/05/03 01:40:34;;;;;;;3.42;2.17;;;;;;;23.27;51.42;99909.98;1710484;82;22230;-59
2021/05/03 01:43:22;;;;;;;4.95;3.05;;;;;;;23.28;51.42;99921.32;1704315;82;21223;-60
2021/05/03 01:45:50;;;;;;;4.97;2.62;;;;;;;23.28;51.45;99925.48;1707684;82;21145;-60
2021/05/03 01:48:19;;;;;;;3.35;1.98;;;;;;;23.27;51.45;99929.41;1715118;82;21437;-60
2021/05/03 01:50:46;;;;;;;4.17;2.45;;;;;;;23.26;51.44;99936.12;1692419;84;21177;-60
2021/05/03 01:53:13;;;;;;;3.25;2.15;;;;;;;23.25;51.49;99944.82;1713062;82;21280;-60
2021/05/03 01:55:39;;;;;;;5.12;2.35;;;;;;;23.24;51.51;99942.63;1711422;82;21129;-60
2021/05/03 01:58:07;;;;;;;4.22;2.55;;;;;;;23.23;51.53;99932.67;1717391;82;21248;-60
2021/05/03 02:00:34;;;;;;;4.62;2.58;;;;;;;23.23;51.56;99934.06;1716646;82;21157;-59
2021/05/03 02:03:01;;;;;;;5.35;2.90;;;;;;;23.24;51.57;99953.73;1687680;84;21198;-60
2021/05/03 02:05:28;;;;;;;5.47;2.52;;;;;;;23.23;51.61;99957.08;1694133;84;22089;-59
2021/05/03 02:08:01;;;;;;;4.03;2.17;;;;;;;23.22;51.66;99941.58;1708807;82;21161;-60
2021/05/03 02:10:27;;;;;;;5.17;2.40;;;;;;;23.23;51.70;99942.39;1713960;82;21146;-59
2021/05/03 02:12:55;;;;;;;4.65;2.80;;;;;;;23.22;51.73;99957.42;1717363;82;21133;-60
2021/05/03 02:15:21;;;;;;;4.22;2.47;;;;;;;23.21;51.79;99953.83;1715647;82;21137;-60
2021/05/03 02:17:48;;;;;;;4.28;2.52;;;;;;;23.21;51.86;99955.22;1717881;82;23597;-60
2021/05/03 02:20:16;;;;;;;5.72;2.47;;;;;;;23.21;51.88;99964.16;1717476;82;21201;-59
2021/05/03 02:22:46;;;;;;;2.85;2.30;;;;;;;23.21;51.92;99944.73;1717631;82;21007;-60
2021/05/03 02:25:12;;;;;;;5.95;3.05;;;;;;;23.20;51.89;99938.38;1718230;82;21180;-62
2021/05/03 02:27:39;;;;;;;3.55;2.05;;;;;;;23.20;51.93;99945.88;1717742;82;21141;-61
2021/05/03 02:30:07;;;;;;;4.15;2.45;;;;;;;23.19;51.98;99941.48;1717738;82;21229;-62
2021/05/03 02:32:37;;;;;;;5.25;2.50;;;;;;;23.19;52.03;99945.08;1717315;82;21149;-61
2021/05/03 02:35:09;;;;;;;3.72;2.08;;;;;;;23.19;52.08;99941.48;1717522;82;21177;-62
2021/05/03 02:37:36;;;;;;;4.00;2.75;;;;;;;23.18;52.15;99932.36;1722446;82;21242;-61
2021/05/03 02:40:04;;;;;;;3.87;2.12;;;;;;;23.18;52.15;99932.94;1687711;84;21197;-61
2021/05/03 02:42:31;;;;;;;5.87;2.65;;;;;;;23.17;52.16;99938.25;1719004;82;21524;-61
2021/05/03 02:44:57;;;;;;;3.10;1.72;;;;;;;23.17;52.18;99935.47;1719341;82;21916;-61
2021/05/03 02:47:24;;;;;;;3.95;1.98;;;;;;;23.16;52.25;99933.89;1725066;82;21176;-62
2021/05/03 02:49:50;;;;;;;3.67;2.33;;;;;;;23.16;52.30;99933.31;1721136;82;21129;-61
2021/05/03 02:52:17;;;;;;;4.55;2.20;;;;;;;23.15;52.35;99937.81;1720701;82;21504;-60
2021/05/03 02:54:43;;;;;;;4.45;2.20;;;;;;;23.15;52.38;99944.75;1718790;82;21169;-62
2021/05/03 02:57:09;;;;;;;4.80;2.08;;;;;;;23.16;52.43;99957.47;1721847;82;21148;-61
2021/05/03 02:59:36;;;;;;;3.60;2.25;;;;;;;23.14;52.47;99955.04;1720102;82;21565;-64
2021/05/03 03:02:02;;;;;;;3.77;2.50;;;;;;;23.13;52.51;99965.91;1720246;82;21539;-63
2021/05/03 03:04:28;;;;;;;4.83;2.33;;;;;;;23.13;52.57;99983.94;1715095;82;21185;-62
2021/05/03 03:06:55;;;;;;;5.47;2.10;;;;;;;23.13;52.60;99982.55;1725170;82;21634;-61
2021/05/03 03:09:21;;;;;;;3.90;2.00;;;;;;;23.13;52.65;99981.75;1714449;82;21627;-61
2021/05/03 03:11:48;;;;;;;3.65;1.82;;;;;;;23.12;52.67;99991.25;1719416;82;20957;-59
2021/05/03 03:14:15;;;;;;;4.12;2.12;;;;;;;23.11;52.71;99991.83;1721263;82;21551;-61
2021/05/03 03:16:42;;;;;;;4.00;2.17;;;;;;;23.12;52.74;99996.23;1716818;82;21617;-62
2021/05/03 03:19:08;;;;;;;3.50;2.00;;;;;;;23.11;52.78;99998.77;1720223;82;21577;-61
2021/05/03 03:21:34;;;;;;;5.67;2.10;;;;;;;23.11;52.81;99999.34;1719259;82;21556;-62
2021/05/03 03:24:01;;;;;;;3.00;1.75;;;;;;;23.11;52.83;100011.25;1722730;82;21171;-61
2021/05/03 03:26:27;;;;;;;3.67;1.82;;;;;;;23.11;52.86;100014.61;1720221;82;21166;-61
2021/05/03 03:28:54;;;;;;;3.52;1.80;;;;;;;23.10;52.90;100014.38;1720444;82;21138;-61
2021/05/03 03:31:22;;;;;;;4.70;1.90;;;;;;;23.09;52.93;100023.27;1718393;82;39073;-61
2021/05/03 03:33:48;;;;;;;3.52;1.65;;;;;;;23.10;52.95;100021.30;1717349;82;21052;-64
2021/05/03 03:36:15;;;;;;;6.55;2.10;;;;;;;23.10;52.97;100032.41;1720710;82;21682;-62
2021/05/03 03:38:41;;;;;;;4.30;2.00;;;;;;;23.10;52.97;100040.73;1720255;82;22077;-62
2021/05/03 03:41:08;;;;;;;3.70;2.35;;;;;;;23.10;53.00;100054.60;1719566;82;21096;-61
2021/05/03 03:43:34;;;;;;;4.35;2.00;;;;;;;23.09;53.01;100062.11;1719129;82;21191;-61
2021/05/03 03:46:01;;;;;;;4.17;1.98;;;;;;;23.08;53.02;100052.20;1723310;82;21252;-62
2021/05/03 03:48:27;;;;;;;5.65;2.20;;;;;;;23.08;53.04;100051.39;1718499;82;21148;-60
2021/05/03 03:50:54;;;;;;;5.70;2.20;;;;;;;23.07;53.06;100052.55;1723547;82;21107;-62
2021/05/03 03:53:20;;;;;;;6.35;2.10;;;;;;;23.06;53.06;100060.05;1708136;82;21213;-61
2021/05/03 03:55:47;;;;;;;4.45;2.12;;;;;;;23.06;53.09;100072.54;1695340;83;21636;-61
2021/05/03 03:58:13;;;;;;;3.60;1.87;;;;;;;23.05;53.10;100070.91;1697281;83;21137;-61
2021/05/03 04:00:39;;;;;;;3.92;2.05;;;;;;;23.05;53.12;100071.49;1696284;83;21194;-61
2021/05/03 04:03:07;;;;;;;3.15;2.08;;;;;;;23.05;53.12;100077.05;1696135;83;21604;-61
2021/05/03 04:06:00;;;;;;;2.92;1.85;;;;;;;23.04;53.13;100076.23;1727996;81;21587;-62
2021/05/03 04:13:48;;;;;;;5.60;3.08;;;;;;;23.02;53.17;100097.98;1727764;81;21216;-61
2021/05/03 04:21:47;;;;;;;3.62;1.82;;;;;;;23.00;53.18;100104.45;1730223;81;21089;-61
2021/05/03 04:24:13;;;;;;;2.52;1.90;;;;;;;22.98;53.21;100112.33;1729707;81;21200;-62
2021/05/03 04:26:35;;;;;;;3.75;2.08;;;;;;;22.99;53.21;100122.84;1729292;81;21150;-61
2021/05/03 04:29:02;;;;;;;3.37;1.87;;;;;;;22.97;53.20;100128.73;1728819;81;21177;-61
2021/05/03 04:31:28;;;;;;;4.75;2.30;;;;;;;22.97;53.22;100130.70;1729696;81;21161;-62
2021/05/03 04:33:54;;;;;;;3.72;1.95;;;;;;;22.97;53.22;100133.47;1729353;81;21208;-61
2021/05/03 04:36:21;;;;;;;7.05;2.20;;;;;;;22.96;53.24;100139.59;1729308;81;21176;-61
2021/05/03 04:38:47;;;;;;;2.45;1.55;;;;;;;22.97;53.24;100139.02;1729137;81;21088;-62
2021/05/03 04:41:14;;;;;;;5.75;2.00;;;;;;;22.96;53.25;100131.85;1728856;81;21192;-61
2021/05/03 04:43:41;;;;;;;4.08;2.00;;;;;;;22.96;53.25;100131.85;1728293;81;21144;-61
2021/05/03 04:46:07;;;;;;;2.95;1.90;;;;;;;22.97;53.26;100137.64;1728499;81;21271;-61
2021/05/03 04:48:34;;;;;;;4.83;2.08;;;;;;;22.96;53.28;100144.33;1728450;81;21188;-63
2021/05/03 04:51:01;;;;;;;4.80;2.40;;;;;;;22.95;53.30;100140.78;1728210;81;21205;-62
2021/05/03 04:56:19;;;;;;;4.00;2.30;;;;;;;22.96;53.30;100152.66;1658622;85;21088;-61
2021/05/03 04:58:46;;;;;;;6.58;2.00;;;;;;;22.95;53.31;100156.03;1660828;85;21280;-61
2021/05/03 05:01:13;;;;;;;4.22;1.95;;;;;;;22.95;53.31;100160.77;1662779;85;21073;-61
2021/05/03 05:03:39;;;;;;;3.80;2.08;;;;;;;22.95;53.30;100158.00;1660557;85;21156;-61
2021/05/03 05:06:05;;;;;;;3.98;1.87;;;;;;;22.94;53.29;100160.53;1629045;86;21217;-61
2021/05/03 05:08:32;;;;;;;5.75;2.12;;;;;;;22.94;53.32;100162.73;1659424;85;21484;-61
2021/05/03 05:10:58;;;;;;;2.70;1.72;;;;;;;22.94;53.32;100174.41;1656974;85;21547;-62
2021/05/03 05:13:25;;;;;;;4.00;2.00;;;;;;;22.93;53.34;100177.75;1658953;85;21176;-61
2021/05/03 05:15:51;;;;;;;4.20;2.02;;;;;;;22.93;53.34;100176.94;1659231;85;21586;-61
2021/05/03 05:18:17;;;;;;;3.60;2.00;;;;;;;22.91;53.34;100185.63;1659049;85;21095;-61
2021/05/03 05:20:44;;;;;;;5.55;1.95;;;;;;;22.92;53.34;100180.86;1629980;86;21161;-63
2021/05/03 05:23:11;;;;;;;5.05;2.10;;;;;;;22.92;53.34;100183.64;1661811;85;21582;-62
2021/05/03 05:25:38;;;;;;;5.58;2.80;;;;;;;22.92;53.31;100190.58;1657244;85;21163;-61
2021/05/03 05:28:04;;;;;;;6.30;2.35;;;;;;;22.92;53.30;100196.13;1657787;85;21344;-61
2021/05/03 05:30:31;;;;;;;6.25;2.75;;;;;;;22.91;53.30;100200.89;1657852;85;21596;-62
2021/05/03 05:32:57;;;;;;;4.80;1.95;;;;;;;22.91;53.32;100204.23;1657551;85;21228;-62
2021/05/03 05:35:24;;;;;;;4.83;2.12;;;;;;;22.91;53.32;100215.33;1657440;85;21226;-61
2021/05/03 05:37:50;;;;;;;2.90;1.75;;;;;;;22.90;53.32;100228.39;1658993;85;21326;-61
2021/05/03 05:40:17;;;;;;;3.12;1.87;;;;;;;22.91;53.32;100236.14;1659743;84;21523;-61
2021/05/03 05:42:43;;;;;;;4.15;2.10;;;;;;;22.89;53.32;100223.98;1656131;85;21187;-61
2021/05/03 05:45:11;;;;;;;6.28;2.12;;;;;;;22.90;53.31;100222.84;1656869;85;21225;-61
2021/05/03 05:47:37;;;;;;;5.12;2.22;;;;;;;22.88;53.31;100231.27;1657185;85;21199;-64
2021/05/03 05:50:06;;;;;;;6.35;2.72;;;;;;;22.89;53.32;100233.70;1657650;85;22010;-63
2021/05/03 05:52:32;;;;;;;3.95;2.15;;;;;;;22.90;53.31;100235.90;1658339;85;21283;-62
2021/05/03 05:54:58;;;;;;;4.75;2.22;;;;;;;22.88;53.30;100236.81;1672613;84;21543;-62
2021/05/03 05:57:25;;;;;;;4.33;2.70;;;;;;;22.88;53.32;100232.07;1669514;84;21180;-61
2021/05/03 05:59:51;;;;;;;5.37;2.20;;;;;;;22.88;53.30;100233.45;1655953;85;21213;-61
2021/05/03 06:02:18;;;;;;;4.80;2.52;;;;;;;22.88;53.30;100232.65;1696774;83;21241;-61
2021/05/03 06:04:44;;;;;;;4.10;2.58;;;;;;;22.89;53.29;100237.05;1695785;83;21192;-61
2021/05/03 06:07:11;;;;;;;3.70;2.10;;;;;;;22.88;53.28;100237.62;1696159;83;21153;-63
2021/05/03 06:09:37;;;;;;;5.45;2.40;;;;;;;22.87;53.31;100237.41;1695738;83;21208;-62
2021/05/03 06:12:05;;;;;;;5.15;2.27;;;;;;;22.89;53.28;100241.20;1695007;83;21271;-61
2021/05/03 06:14:32;;;;;;;3.60;2.02;;;;;;;22.87;53.27;100242.96;1699018;83;21218;-62
2021/05/03 06:16:59;;;;;;;3.25;1.90;;;;;;;22.88;53.29;100246.52;1695626;83;21160;-61
2021/05/03 06:19:25;;;;;;;4.80;2.10;;;;;;;22.87;53.27;100251.28;1695025;83;21143;-62
2021/05/03 06:21:51;;;;;;;3.60;2.05;;;;;;;22.88;53.27;100264.55;1694782;83;21129;-61
2021/05/03 06:24:18;;;;;;;3.35;2.25;;;;;;;22.87;53.29;100265.15;1696388;83;23533;-61
2021/05/03 06:26:44;;;;;;;3.90;2.45;;;;;;;22.88;53.27;100271.48;1693665;83;21204;-61
2021/05/03 06:29:10;;;;;;;4.40;2.20;;;;;;;22.87;53.29;100279.59;1695013;83;21085;-61
2021/05/03 06:31:36;;;;;;;5.12;2.45;;;;;;;22.88;53.27;100277.03;1694571;83;21231;-62
2021/05/03 06:34:03;;;;;;;4.47;2.47;;;;;;;22.87;53.26;100280.41;1695412;83;21192;-61
2021/05/03 06:36:30;;;;;;;4.22;1.90;;;;;;;22.87;53.25;100278.20;1695055;83;21206;-61
2021/05/03 06:38:56;;;;;;;5.65;2.37;;;;;;;22.85;53.26;100275.77;1693794;83;21237;-65
2021/05/03 06:41:23;;;;;;;6.10;2.40;;;;;;;22.86;53.28;100277.97;1696435;83;21170;-61
2021/05/03 06:43:49;;;;;;;5.50;2.25;;;;;;;22.86;53.27;100269.64;1693525;83;21196;-62
2021/05/03 06:46:15;;;;;;;4.20;2.02;;;;;;;22.84;53.29;100274.14;1695328;83;21445;-62
2021/05/03 06:48:42;;;;;;;3.90;1.98;;;;;;;22.85;53.28;100278.54;1693662;83;21595;-62
2021/05/03 06:51:08;;;;;;;4.25;2.15;;;;;;;22.85;53.29;100272.18;1696339;83;21252;-61
2021/05/03 06:53:34;;;;;;;3.30;2.22;;;;;;;22.85;53.32;100284.66;1696082;83;21188;-62
2021/05/03 06:56:01;;;;;;;4.45;1.98;;;;;;;22.85;53.31;100292.98;1693089;83;21185;-61
2021/05/03 06:58:28;;;;;;;4.60;2.30;;;;;;;22.85;53.33;100308.23;1694267;83;21481;-62
2021/05/03 07:00:54;;;;;;;6.25;3.00;;;;;;;22.84;53.34;100316.32;1695785;83;21254;-62
2021/05/03 07:03:21;;;;;;;3.65;2.25;;;;;;;22.84;53.35;100313.55;1696238;83;21216;-62
2021/05/03 07:05:47;;;;;;;4.12;2.20;;;;;;;22.85;53.33;100316.56;1695467;83;21019;-61
2021/05/03 07:08:13;;;;;;;4.67;2.10;;;;;;;22.84;53.34;100314.93;1695173;83;21038;-62
2021/05/03 07:10:45;;;;;;;4.47;2.33;;;;;;;22.84;53.35;100315.75;1695442;83;21164;-61
2021/05/03 07:13:12;;;;;;;5.00;2.20;;;;;;;22.85;53.35;100324.88;1695204;83;21233;-62
2021/05/03 07:15:39;;;;;;;3.22;2.27;;;;;;;22.83;53.35;100316.11;1695384;83;21149;-61
2021/05/03 07:18:06;;;;;;;3.65;2.45;;;;;;;22.83;53.35;100316.11;1678671;84;21078;-62
2021/05/03 07:20:32;;;;;;;3.75;2.00;;;;;;;22.83;53.35;100307.79;1681041;84;21118;-62
2021/05/03 07:22:58;;;;;;;4.45;2.35;;;;;;;22.84;53.35;100312.16;1683154;83;21160;-64
2021/05/03 07:25:25;;;;;;;4.00;2.45;;;;;;;22.82;53.35;100310.33;1689164;83;21997;-61
2021/05/03 07:27:51;;;;;;;5.03;2.05;;;;;;;22.83;53.36;100310.56;1692710;83;21144;-61
2021/05/03 07:30:19;;;;;;;4.22;2.20;;;;;;;22.82;53.35;100311.13;1695027;83;21193;-61
2021/05/03 07:32:45;;;;;;;3.30;1.90;;;;;;;22.82;53.35;100306.97;1695141;83;21147;-61
2021/05/03 07:35:13;;;;;;;4.50;2.25;;;;;;;22.82;53.37;100308.36;1695461;83;21185;-61
2021/05/03 07:37:40;;;;;;;3.90;2.10;;;;;;;22.82;53.37;100308.36;1694946;83;21179;-61
2021/05/03 07:40:08;;;;;;;5.10;2.27;;;;;;;22.82;53.38;100307.55;1695648;83;21532;-62
2021/05/03 07:42:34;;;;;;;5.20;2.20;;;;;;;22.82;53.38;100304.78;1686609;83;21147;-62
2021/05/03 07:45:01;;;;;;;4.45;2.00;;;;;;;22.82;53.37;100308.94;1682792;83;21180;-61
2021/05/03 07:47:28;;;;;;;3.62;2.00;;;;;;;22.82;53.38;100308.94;1685522;83;21081;-62
2021/05/03 07:49:55;;;;;;;3.80;2.15;;;;;;;22.82;53.40;100295.88;1694444;83;21276;-62
2021/05/03 07:52:21;;;;;;;5.10;2.37;;;;;;;22.84;53.38;100299.67;1688409;83;21914;-61
2021/05/03 07:54:48;;;;;;;4.00;2.50;;;;;;;22.84;53.39;100295.52;1667434;84;21529;-61
2021/05/03 07:57:14;;;;;;;5.28;2.72;;;;;;;22.84;53.39;100294.13;1700277;82;21158;-61
2021/05/03 07:59:40;;;;;;;4.55;2.58;;;;;;;22.83;53.38;100298.86;1691749;83;21180;-61
2021/05/03 08:02:07;;;;;;;3.95;2.22;;;;;;;22.83;53.36;100302.24;1692933;83;21289;-61
2021/05/03 08:04:34;;;;;;;4.15;2.55;;;;;;;22.83;53.35;100304.41;1694731;83;21168;-61
2021/05/03 08:07:01;;;;;;;3.75;2.20;;;;;;;22.84;53.35;100303.84;1696333;83;21009;-61
2021/05/03 08:09:28;;;;;;;3.98;2.77;;;;;;;22.84;53.35;100295.52;1696578;83;21089;-61
2021/05/03 08:11:54;;;;;;;4.80;2.10;;;;;;;22.83;53.35;100300.25;1694577;83;21172;-61
2021/05/03 08:14:22;;;;;;;4.37;2.70;;;;;;;22.84;53.34;100300.49;1697635;83;21208;-61
2021/05/03 08:16:51;;;;;;;2.98;1.90;;;;;;;22.84;53.35;100307.42;1694946;83;21199;-62
2021/05/03 08:19:17;;;;;;;4.20;2.20;;;;;;;22.85;53.34;100307.66;1697052;83;21155;-61
2021/05/03 08:21:43;;;;;;;3.60;2.25;;;;;;;22.85;53.33;100306.85;1691128;83;21232;-61
2021/05/03 08:24:10;;;;;;;4.28;2.52;;;;;;;22.85;53.32;100317.38;1692537;83;21152;-61
2021/05/03 08:26:36;;;;;;;5.05;2.83;;;;;;;22.85;53.31;100307.66;1692423;83;21415;-61
2021/05/03 08:29:03;;;;;;;4.80;2.50;;;;;;;22.85;53.29;100313.21;1694246;83;21234;-61
2021/05/03 08:31:30;;;;;;;4.00;2.42;;;;;;;22.87;53.29;100310.11;1691176;83;21174;-61
2021/05/03 08:33:56;;;;;;;4.85;2.60;;;;;;;22.87;53.27;100308.72;1686827;83;21163;-61
2021/05/03 08:36:24;;;;;;;4.12;2.30;;;;;;;22.87;53.26;100300.40;1688759;83;21179;-61
2021/05/03 08:38:50;;;;;;;4.35;2.47;;;;;;;22.88;53.25;100301.99;1692600;83;21517;-62
2021/05/03 08:41:17;;;;;;;4.53;2.52;;;;;;;22.87;53.25;100294.27;1695192;83;21211;-62
2021/05/03 08:43:46;;;;;;;3.75;2.10;;;;;;;22.87;53.23;100297.05;1696658;83;21650;-62
2021/05/03 08:46:26;;;;;;;4.30;2.30;;;;;;;22.88;53.21;100302.80;1691972;82;21199;-61
2021/05/03 08:48:54;;;;;;;;;;;;;;;22.89;53.19;100302.23;1693899;83;21261;-61
2021/05/03 08:53:59;;;;;;;7.75;2.75;;;;;;;22.88;53.20;100292.28;1695058;83;20265;-62
2021/05/03 08:56:24;;;;;;;3.60;2.37;;;;;;;22.86;53.19;100298.77;1692920;83;21565;-62
2021/05/03 08:58:51;;;;;;;3.92;2.20;;;;;;;22.86;53.19;100297.38;1693289;83;21387;-61
2021/05/03 09:01:17;;;;;;;4.10;2.15;;;;;;;22.87;53.19;100296.23;1689432;83;21203;-62
2021/05/03 09:03:43;;;;;;;3.85;2.50;;;;;;;22.86;53.21;100294.61;1694704;83;21268;-62
2021/05/03 09:06:10;;;;;;;5.85;2.45;;;;;;;22.88;53.19;100303.38;1692527;83;21453;-61
2021/05/03 09:08:37;;;;;;;6.03;2.75;;;;;;;22.87;53.20;100305.95;1693986;83;21128;-61
2021/05/03 09:11:04;;;;;;;5.00;2.25;;;;;;;22.88;53.18;100302.80;1692096;83;21230;-62
2021/05/03 09:13:36;;;;;;;4.47;2.50;;;;;;;22.89;53.18;100307.78;1699403;83;21172;-61
2021/05/03 09:16:23;;;;;;;7.12;2.85;;;;;;;22.89;53.19;100300.84;1700574;83;21204;-62
2021/05/03 09:18:50;;;;;;;4.67;2.50;;;;;;;22.90;53.17;100305.24;1694835;83;21192;-61
2021/05/03 09:21:20;;;;;;;6.05;2.60;;;;;;;22.88;53.13;100311.13;1693433;83;21188;-61
2021/05/03 09:24:16;;;;;;;5.57;2.50;;;;;;;22.89;53.12;100309.17;1694254;83;21192;-62
2021/05/03 09:26:52;;;;;;;3.92;2.50;;;;;;;22.89;53.11;100312.75;1693794;83;21547;-61
2021/05/03 09:29:31;;;;;;;4.37;2.50;;;;;;;22.89;53.10;100308.59;1694255;83;21700;-62
2021/05/03 09:32:05;;;;;;;5.20;2.45;;;;;;;22.88;53.08;100313.90;1694657;83;21179;-63
2021/05/03 09:34:50;;;;;;;4.83;2.42;;;;;;;22.90;53.08;100328.83;1696546;83;21171;-60
2021/05/03 09:37:38;;;;;;;3.55;1.98;;;;;;;22.90;53.08;100323.28;1691692;83;21138;-62
2021/05/03 09:40:12;;;;;;;4.00;2.83;;;;;;;22.89;53.04;100329.40;1697139;83;21200;-60
2021/05/03 09:42:54;;;;;;;4.53;2.50;;;;;;;22.90;53.03;100323.28;1683322;83;23520;-62
2021/05/03 09:45:30;;;;;;;4.22;2.30;;;;;;;22.90;53.02;100326.05;1692080;83;21234;-60
2021/05/03 09:47:58;;;;;;;4.37;2.45;;;;;;;22.91;53.00;100316.01;1696350;83;21555;-61
2021/05/03 09:50:27;;;;;;;4.53;2.15;;;;;;;22.91;52.97;100322.13;1693317;83;21168;-61
2021/05/03 09:53:14;;;;;;;5.20;2.22;;;;;;;22.92;52.93;100331.47;1691696;83;21546;-60
2021/05/03 09:55:48;;;;;;;2.87;2.25;;;;;;;22.94;52.91;100337.50;1696911;83;21239;-61
2021/05/03 09:58:18;;;;;;;4.83;2.60;;;;;;;22.94;52.87;100318.08;1688952;83;21163;-62
2021/05/03 10:00:51;;;;;;;7.25;2.22;;;;;;;22.97;52.84;100326.28;1689203;83;21564;-62
2021/05/03 10:03:43;;;;;;;4.45;2.27;;;;;;;22.98;52.81;100327.33;1688690;83;21219;-61
2021/05/03 10:06:08;;;;;;;3.67;2.15;;;;;;;23.01;52.76;100334.14;1684514;83;21132;-61
2021/05/03 10:08:35;;;;;;;6.47;2.83;;;;;;;23.03;52.71;100338.78;1689149;83;25136;-61
2021/05/03 10:11:05;;;;;;;3.65;2.10;;;;;;;23.05;52.67;100335.08;1692759;83;21173;-62
2021/05/03 10:13:30;;;;;;;3.60;1.92;;;;;;;23.08;52.63;100321.92;1685882;83;21205;-61
2021/05/03 10:15:58;;;;;;;4.33;2.20;;;;;;;23.10;52.56;100337.62;1691658;83;21203;-64
2021/05/03 10:18:26;;;;;;;4.20;2.27;;;;;;;23.13;52.51;100342.48;1690310;83;21162;-61
2021/05/03 10:20:52;;;;;;;4.08;2.25;;;;;;;23.16;52.48;100326.55;1683462;83;22293;-61
2021/05/03 10:23:21;;;;;;;4.80;1.90;;;;;;;23.17;52.42;100302.59;1656991;84;21213;-61
2021/05/03 10:25:47;;;;;;;4.35;2.20;;;;;;;23.20;52.36;100326.89;1687485;83;21431;-61
2021/05/03 10:28:14;;;;;;;4.35;1.65;;;;;;;23.23;52.32;100315.09;1686921;83;21175;-61
2021/05/03 10:30:47;;;;;;;4.90;1.65;;;;;;;23.25;52.26;100315.33;1688403;83;21190;-61
2021/05/03 10:33:14;;;;;;;3.50;1.52;;;;;;;23.28;52.21;100311.27;1687792;83;21289;-62
2021/05/03 10:35:43;;;;;;;4.25;1.72;;;;;;;23.31;52.19;100318.90;1691382;83;21318;-62
2021/05/03 10:38:39;;;;;;;2.52;1.50;;;;;;;23.33;52.13;100307.45;1690130;83;21452;-61
2021/05/03 10:41:28;;;;;;;3.62;1.60;;;;;;;23.36;52.09;100324.80;1687073;83;21221;-61
2021/05/03 10:44:26;;;;;;;4.15;1.60;;;;;;;23.39;52.06;100326.30;1688894;83;21175;-62
2021/05/03 10:49:17;;;;;;;2.60;1.70;;;;;;;23.44;51.98;100314.99;1685309;83;21216;-62
2021/05/03 10:51:56;;;;;;;2.85;1.75;;;;;;;23.48;51.93;100309.55;1659090;84;21147;-61
2021/05/03 10:57:07;;;;;;;2.93;1.70;;;;;;;23.51;51.85;100302.70;1685947;83;21172;-61
2021/05/03 10:59:59;;;;;;;1.80;1.32;;;;;;;23.55;51.81;100298.68;1690194;83;21288;-61
2021/05/03 11:02:23;;;;;;;2.60;1.45;;;;;;;23.59;51.79;100300.98;1687338;83;21168;-62
2021/05/03 11:05:26;;;;;;;2.85;1.60;;;;;;;23.61;51.74;100303.63;1683981;83;21183;-61
2021/05/03 11:08:11;;;;;;;2.17;1.45;;;;;;;23.65;51.72;100306.51;1682250;83;21176;-61
2021/05/03 11:10:59;;;;;;;3.27;1.75;;;;;;;23.67;51.67;100302.82;1687771;83;21549;-61
2021/05/03 11:13:43;;;;;;;3.20;1.62;;;;;;;23.70;51.65;100309.05;1689077;83;21556;-61
2021/05/03 11:16:31;;;;;;;2.87;1.50;;;;;;;23.73;51.60;100287.52;1691459;83;21228;-61
2021/05/03 11:19:00;;;;;;;2.85;1.47;;;;;;;23.76;51.57;100316.00;1653338;84;21121;-61
2021/05/03 11:21:46;;;;;;;3.45;1.65;;;;;;;23.79;51.52;100295.03;1687596;83;21144;-62
2021/05/03 11:24:20;;;;;;;2.42;1.30;;;;;;;23.82;51.51;100291.54;1680559;83;21115;-62
2021/05/03 11:26:56;;;;;;;3.10;1.67;;;;;;;23.86;51.48;100284.12;1688981;83;21219;-61
2021/05/03 11:29:20;;;;;;;2.00;1.27;;;;;;;23.88;51.46;100294.31;1684820;83;21567;-62
2021/05/03 11:31:44;;;;;;;6.70;1.57;;;;;;;23.93;51.43;100289.91;1689759;83;21163;-62
2021/05/03 11:34:35;;;;;;;2.35;1.30;;;;;;;23.95;51.39;100293.94;1689393;83;21152;-61
2021/05/03 11:36:48;;;;;;;3.30;1.45;;;;;;;23.98;51.35;100297.39;1672659;83;21600;-62
2021/05/03 11:39:19;;;;;;;2.35;1.40;;;;;;;24.03;51.31;100303.28;1686733;83;21394;-61
2021/05/03 11:47:18;;;;;;;3.33;1.70;;;;;;;24.20;51.19;100304.41;1842678;75;28426;-61
2021/05/03 11:49:45;;;;;;;2.08;1.35;;;;;;;24.32;50.93;100296.58;1772816;78;21188;-62
2021/05/03 11:52:12;;;;;;;4.78;1.42;;;;;;;24.34;50.98;100306.78;1833827;77;22082;-61
2021/05/03 11:54:43;;;;;;;2.92;1.42;;;;;;;24.38;50.92;100293.78;1823722;77;21102;-61
2021/05/03 11:57:21;;;;;;;2.10;1.20;;;;;;;24.40;50.90;100292.86;1787742;78;21157;-61
2021/05/03 11:59:40;;;;;;;3.40;1.25;;;;;;;24.43;50.87;100301.30;1781571;78;21407;-62